Time;durP1;ratioP1;P1;durP2;ratioP2;P2;SDS_P1;SDS_P2;PMS_P1;PMS_P2;Temp;Humidity;BMP_temperature;BMP_pressure;BME280_temperature;BME280_humidity;BME280_pressure;Samples;Min_cycle;Max_cycle;Signal;HPM_P1;HPM_P2
2022/01/03 00:05:13;;;;;;;9.70;4.05;;;;;;;7.72;96.63;98459.71;4386058;80;21061;-89
2022/01/03 00:11:20;;;;;;;8.83;4.35;;;;;;;7.81;96.22;98469.16;4389510;80;21750;-90
2022/01/03 00:17:22;;;;;;;9.33;3.80;;;;;;;7.87;95.37;98448.63;4350742;80;21070;-90
2022/01/03 00:23:29;;;;;;;8.58;4.17;;;;;;;8.06;95.35;98457.23;4365909;80;21011;-90
2022/01/03 00:29:48;;;;;;;9.73;4.28;;;;;;;8.10;94.99;98464.09;4411049;79;21044;-90
2022/01/03 00:36:02;;;;;;;6.67;4.28;;;;;;;8.15;94.91;98459.66;4404724;79;21018;-87
2022/01/03 00:42:16;;;;;;;7.70;4.33;;;;;;;8.31;94.33;98457.55;4408239;79;21013;-90
2022/01/03 00:48:21;;;;;;;5.93;3.63;;;;;;;8.38;94.12;98445.37;4384170;80;21050;-90
2022/01/03 00:54:22;;;;;;;9.80;4.33;;;;;;;8.42;93.27;98451.06;4387636;80;21033;-91
2022/01/03 01:00:24;;;;;;;7.65;4.10;;;;;;;8.56;93.11;98436.77;4351840;80;21338;-89
2022/01/03 01:06:28;;;;;;;17.60;4.55;;;;;;;8.50;92.80;98416.45;4464209;79;21605;-93
2022/01/03 01:12:32;;;;;;;8.20;4.30;;;;;;;8.52;92.57;98417.64;4385028;80;21053;-90
2022/01/03 01:18:37;;;;;;;10.03;4.87;;;;;;;8.49;92.37;98412.17;4386249;80;21066;-89
2022/01/03 01:25:09;;;;;;;7.47;3.98;;;;;;;8.49;92.20;98408.08;4400980;79;21630;-90
2022/01/03 01:30:53;;;;;;;7.40;4.63;;;;;;;8.51;91.78;98403.80;4403882;79;21034;-91
2022/01/03 01:37:01;;;;;;;7.72;4.30;;;;;;;8.50;91.58;98404.18;4374910;79;21052;-90
2022/01/03 01:43:04;;;;;;;6.90;4.05;;;;;;;8.60;91.23;98401.55;4409393;78;21072;-89
2022/01/03 01:49:08;;;;;;;10.03;4.03;;;;;;;8.67;89.05;98381.16;4426241;78;21044;-90
2022/01/03 01:55:13;;;;;;;6.37;4.28;;;;;;;8.74;87.80;98370.29;4423184;78;21024;-89
2022/01/03 02:01:23;;;;;;;8.10;4.10;;;;;;;8.78;88.67;98357.48;4419310;78;21040;-91
2022/01/03 02:07:49;;;;;;;7.33;3.15;;;;;;;8.81;88.12;98359.45;4327614;80;21508;-90
2022/01/03 02:13:52;;;;;;;9.93;3.45;;;;;;;8.80;87.66;98359.22;4376878;80;21104;-90
2022/01/03 02:20:10;;;;;;;5.12;3.00;;;;;;;8.79;88.56;98356.88;4378746;80;21625;-89
2022/01/03 02:26:12;;;;;;;5.62;3.27;;;;;;;8.66;88.64;98369.27;4370180;80;20990;-90
2022/01/03 02:32:14;;;;;;;6.42;3.25;;;;;;;8.70;88.46;98364.61;4378245;80;21026;-90
2022/01/03 02:38:16;;;;;;;8.20;3.65;;;;;;;8.69;88.12;98348.80;4377634;80;21085;-90
2022/01/03 02:44:18;;;;;;;7.03;2.92;;;;;;;8.71;88.30;98336.94;4381038;80;21046;-90
2022/01/03 02:50:24;;;;;;;7.95;3.50;;;;;;;8.67;88.16;98330.69;4382430;80;21042;-89
2022/01/03 02:56:35;;;;;;;5.10;2.80;;;;;;;8.48;87.98;98330.91;4353310;80;21042;-90
2022/01/03 03:02:39;;;;;;;4.45;2.85;;;;;;;8.32;88.00;98311.84;4383832;80;21014;-89
2022/01/03 03:08:41;;;;;;;6.90;3.40;;;;;;;8.15;87.98;98318.69;4385827;80;21101;-91
2022/01/03 03:14:47;;;;;;;8.90;3.62;;;;;;;8.00;88.05;98322.44;4429788;78;21509;-89
2022/01/03 03:20:49;;;;;;;8.55;3.08;;;;;;;7.90;88.06;98326.62;4430934;78;21654;-90
2022/01/03 03:26:50;;;;;;;7.80;3.58;;;;;;;7.82;88.11;98324.97;4431037;78;21582;-90
2022/01/03 03:32:57;;;;;;;9.48;3.92;;;;;;;7.74;88.33;98319.80;4433625;78;21068;-89
2022/01/03 03:39:00;;;;;;;7.15;3.65;;;;;;;7.73;88.34;98308.13;4434090;78;21047;-89
2022/01/03 03:45:04;;;;;;;6.28;3.72;;;;;;;7.83;88.51;98307.45;4428767;78;21069;-89
2022/01/03 03:51:06;;;;;;;6.03;3.98;;;;;;;7.83;88.53;98303.93;4360188;81;21053;-89
2022/01/03 03:57:09;;;;;;;7.15;3.30;;;;;;;7.79;88.67;98303.91;4370925;80;21042;-90
2022/01/03 04:03:11;;;;;;;5.05;3.30;;;;;;;7.75;88.75;98305.03;4358008;81;21585;-92
2022/01/03 04:09:15;;;;;;;6.22;3.50;;;;;;;7.75;88.96;98294.91;4367337;81;21081;-90
2022/01/03 04:15:17;;;;;;;8.73;3.72;;;;;;;7.78;89.09;98298.24;4454674;79;21058;-90
2022/01/03 04:21:19;;;;;;;7.95;3.55;;;;;;;7.85;89.18;98301.63;4361007;80;21069;-89
2022/01/03 04:27:20;;;;;;;5.20;3.15;;;;;;;7.94;88.86;98300.74;4421182;79;21398;-89
2022/01/03 04:33:23;;;;;;;6.10;3.27;;;;;;;7.97;89.06;98302.75;4363843;81;21045;-89
2022/01/03 04:39:26;;;;;;;7.37;3.58;;;;;;;7.96;89.07;98288.33;4433714;78;21668;-93
2022/01/03 04:45:27;;;;;;;7.00;3.22;;;;;;;8.05;89.01;98274.38;4419681;79;21065;-89
2022/01/03 04:51:35;;;;;;;9.13;2.90;;;;;;;8.05;89.02;98271.65;4405976;79;21128;-90
2022/01/03 04:57:39;;;;;;;5.47;2.98;;;;;;;8.03;89.11;98265.21;4406134;79;21080;-90
2022/01/03 05:03:40;;;;;;;5.08;3.40;;;;;;;8.13;88.84;98269.20;4406243;79;21037;-90
2022/01/03 05:09:43;;;;;;;7.12;2.70;;;;;;;8.14;88.54;98261.24;4396409;79;21069;-90
2022/01/03 05:15:45;;;;;;;5.50;3.08;;;;;;;8.11;88.95;98255.75;4395744;79;20998;-89
2022/01/03 05:21:46;;;;;;;8.00;3.42;;;;;;;8.19;88.13;98243.75;4383687;79;21025;-89
2022/01/03 05:27:48;;;;;;;5.53;3.00;;;;;;;8.21;88.27;98224.48;4395988;79;21044;-90
2022/01/03 05:33:50;;;;;;;10.72;4.20;;;;;;;8.17;88.37;98211.98;4387116;79;20979;-89
2022/01/03 05:39:51;;;;;;;6.70;3.60;;;;;;;8.11;88.63;98225.20;4394968;79;21015;-89
2022/01/03 05:45:53;;;;;;;7.97;3.15;;;;;;;8.14;88.70;98225.02;4373796;79;21039;-90
2022/01/03 05:51:56;;;;;;;9.20;2.70;;;;;;;8.17;88.77;98211.98;4369580;80;21041;-89
2022/01/03 05:57:59;;;;;;;5.59;2.53;;;;;;;8.20;89.13;98216.68;4299291;78;10000197;-92
2022/01/03 06:04:14;;;;;;;5.80;2.83;;;;;;;8.13;90.01;98213.31;4423157;78;21029;-91
2022/01/03 06:10:09;;;;;;;6.70;3.60;;;;;;;8.07;90.98;98214.03;4423326;78;21535;-91
2022/01/03 06:16:13;;;;;;;9.55;3.95;;;;;;;7.98;93.37;98204.83;4424718;78;21908;-90
2022/01/03 06:22:18;;;;;;;11.10;3.92;;;;;;;7.84;94.81;98184.27;4423879;78;21063;-90
2022/01/03 06:28:22;;;;;;;7.22;4.22;;;;;;;7.68;94.12;98192.69;4427896;78;21115;-91
2022/01/03 06:34:26;;;;;;;10.18;3.92;;;;;;;7.59;94.51;98196.30;4423983;78;21525;-91
2022/01/03 06:40:28;;;;;;;7.83;3.67;;;;;;;7.52;95.54;98196.78;4419254;78;20969;-89
2022/01/03 06:46:37;;;;;;;12.45;5.12;;;;;;;7.46;94.52;98219.50;4412663;78;21085;-90
2022/01/03 06:52:38;;;;;;;10.75;4.75;;;;;;;7.46;96.66;98216.77;4385704;79;21076;-90
2022/01/03 06:58:42;;;;;;;9.40;5.00;;;;;;;7.38;96.67;98221.93;4283987;79;10000092;-90
2022/01/03 07:04:43;;;;;;;9.25;5.35;;;;;;;7.32;96.67;98233.52;4411398;79;21754;-93
2022/01/03 07:10:46;;;;;;;9.40;2.90;;;;;;;7.29;97.62;98228.82;4388202;80;21034;-88
2022/01/03 07:23:08;;;;;;;9.75;3.65;;;;;;;7.67;97.74;98206.08;4380175;80;21006;-90
2022/01/03 07:29:12;;;;;;;7.05;3.65;;;;;;;7.76;97.80;98210.67;4381370;80;21089;-90
2022/01/03 07:35:16;;;;;;;12.93;4.20;;;;;;;7.82;97.71;98213.82;4386300;80;21065;-91
2022/01/03 07:41:18;;;;;;;12.73;5.20;;;;;;;7.92;97.89;98214.51;4384959;80;21065;-92
2022/01/03 07:47:21;;;;;;;8.80;4.10;;;;;;;8.02;97.76;98229.39;4349393;80;22511;-90
2022/01/03 07:53:23;;;;;;;8.58;3.33;;;;;;;8.16;97.69;98254.05;4392915;79;21088;-90
2022/01/03 07:59:24;;;;;;;7.35;3.22;;;;;;;8.21;97.81;98254.47;4389551;79;21092;-91
2022/01/03 08:05:26;;;;;;;7.92;3.20;;;;;;;8.28;97.62;98261.39;4389887;79;21120;-89
2022/01/03 08:11:28;;;;;;;7.83;2.40;;;;;;;8.36;97.24;98271.20;4462483;78;22161;-91
2022/01/03 08:17:31;;;;;;;6.05;2.72;;;;;;;8.51;96.78;98264.69;4363094;80;21145;-92
2022/01/03 08:23:32;;;;;;;10.53;3.52;;;;;;;8.59;96.79;98271.77;4371797;80;21084;-93
2022/01/03 08:29:34;;;;;;;6.80;3.12;;;;;;;8.58;96.51;98270.18;4440033;78;21137;-90
2022/01/03 08:35:36;;;;;;;8.43;3.25;;;;;;;8.67;96.15;98270.66;4436322;78;21021;-90
2022/01/03 08:41:39;;;;;;;7.70;2.52;;;;;;;8.72;95.86;98274.97;4390284;79;21037;-91
2022/01/03 08:47:41;;;;;;;7.55;3.40;;;;;;;8.85;95.06;98292.59;4423173;78;20995;-92
2022/01/03 08:53:42;;;;;;;8.43;2.42;;;;;;;8.93;94.15;98295.56;4360051;80;21065;-90
2022/01/03 08:59:44;;;;;;;7.10;2.52;;;;;;;8.91;92.14;98302.01;4368838;80;21032;-90
2022/01/03 09:05:47;;;;;;;7.83;2.70;;;;;;;8.90;92.96;98304.52;4412751;78;21053;-90
2022/01/03 09:11:49;;;;;;;8.25;3.05;;;;;;;8.87;92.53;98309.37;4420193;80;21042;-91
2022/01/03 09:17:51;;;;;;;9.45;3.37;;;;;;;8.90;92.38;98314.07;4414629;79;21032;-93
2022/01/03 09:24:15;;;;;;;9.88;3.70;;;;;;;8.96;91.43;98300.27;4411789;80;21044;-91
2022/01/03 09:29:58;;;;;;;6.20;2.87;;;;;;;9.02;90.58;98299.53;4400883;78;21068;-90
2022/01/03 09:35:59;;;;;;;4.78;2.08;;;;;;;9.14;91.50;98288.31;4423703;78;21068;-90
2022/01/03 09:42:16;;;;;;;7.65;3.25;;;;;;;9.18;91.11;98286.36;4426303;78;20993;-91
2022/01/03 09:48:20;;;;;;;5.55;2.60;;;;;;;9.28;90.41;98278.03;4426572;78;21091;-90
2022/01/03 09:54:22;;;;;;;8.88;2.80;;;;;;;9.42;90.38;98276.72;4433437;78;21048;-89
2022/01/03 10:00:26;;;;;;;4.00;2.33;;;;;;;9.49;89.75;98278.89;4430802;78;21064;-91
2022/01/03 10:06:28;;;;;;;7.05;2.58;;;;;;;9.69;90.10;98262.97;4437066;78;21084;-89
2022/01/03 10:12:29;;;;;;;6.33;3.02;;;;;;;9.92;88.91;98262.62;4436455;78;21067;-90
2022/01/03 10:18:33;;;;;;;5.78;2.00;;;;;;;9.79;89.00;98260.83;4164358;80;33955;-91
2022/01/03 10:24:39;;;;;;;2.92;1.62;;;;;;;9.97;87.92;98258.94;4081025;86;21152;-90
2022/01/03 10:30:45;;;;;;;3.73;2.70;;;;;;;10.20;87.31;98271.69;3972204;85;9999962;-90
2022/01/03 10:36:48;;;;;;;4.95;1.80;;;;;;;10.16;87.61;98268.17;4075167;85;21084;-90
2022/01/03 10:42:53;;;;;;;4.08;1.92;;;;;;;9.92;86.45;98268.09;4077716;85;21056;-90
2022/01/03 10:49:16;;;;;;;7.97;3.08;;;;;;;9.77;87.38;98269.23;4093052;85;21141;-91
2022/01/03 10:55:33;;;;;;;5.35;2.30;;;;;;;10.23;87.59;98264.64;4100342;85;22061;-90
2022/01/03 11:01:32;;;;;;;4.78;1.92;;;;;;;10.50;86.69;98275.41;4064619;85;21105;-91
2022/01/03 11:13:43;;;;;;;5.20;2.00;;;;;;;10.20;85.93;98251.17;4094910;85;21145;-90
2022/01/03 11:19:45;;;;;;;8.90;2.95;;;;;;;10.02;86.20;98237.26;4099187;85;21132;-92
2022/01/03 11:25:47;;;;;;;4.90;2.17;;;;;;;9.85;86.34;98251.69;4038976;86;21753;-90
2022/01/03 11:31:52;;;;;;;7.22;1.50;;;;;;;9.45;87.03;98267.18;4096968;85;21140;-90
2022/01/03 11:37:56;;;;;;;3.70;1.77;;;;;;;8.92;87.36;98248.97;4083165;85;21097;-90
2022/01/03 11:43:58;;;;;;;5.20;2.17;;;;;;;8.74;88.07;98233.09;4100111;85;21196;-90
2022/01/03 11:50:00;;;;;;;6.35;2.22;;;;;;;8.50;87.91;98239.16;4031106;86;21101;-90
2022/01/03 11:56:09;;;;;;;3.70;2.10;;;;;;;8.23;88.10;98254.13;4037521;86;21738;-90
2022/01/03 12:08:40;;;;;;;5.12;1.42;;;;;;;8.14;87.91;98240.80;4062438;86;21053;-93
2022/01/03 12:14:47;;;;;;;4.70;1.70;;;;;;;7.96;87.63;98243.92;4041290;85;21100;-90
2022/01/03 12:20:50;;;;;;;7.05;2.72;;;;;;;7.77;87.55;98253.09;4064953;86;21599;-90
2022/01/03 12:27:18;;;;;;;7.33;2.00;;;;;;;7.80;87.40;98248.82;4093422;86;21045;-92
2022/01/03 12:33:21;;;;;;;4.60;1.98;;;;;;;7.85;87.24;98248.49;4091100;86;21636;-89
2022/01/03 12:39:23;;;;;;;5.30;2.00;;;;;;;7.89;87.08;98246.00;4066734;86;21085;-90
2022/01/03 12:45:33;;;;;;;7.95;2.20;;;;;;;7.98;86.22;98234.80;4088029;86;21065;-90
2022/01/03 12:51:38;;;;;;;12.55;3.75;;;;;;;8.06;86.14;98229.62;4095771;85;21033;-90
2022/01/03 12:57:41;;;;;;;7.40;3.65;;;;;;;8.23;86.02;98227.66;4094311;85;21091;-91
2022/01/03 13:03:52;;;;;;;6.40;2.67;;;;;;;8.46;85.64;98232.87;3983173;85;9999715;-89
2022/01/03 13:09:53;;;;;;;9.35;3.50;;;;;;;8.61;84.70;98240.02;4091803;85;21128;-91
2022/01/03 13:15:57;;;;;;;7.55;2.85;;;;;;;8.66;84.16;98253.30;4101147;85;21084;-90
2022/01/03 13:22:08;;;;;;;10.43;3.67;;;;;;;8.61;84.91;98257.74;4061986;86;21174;-91
2022/01/03 13:28:13;;;;;;;6.50;3.20;;;;;;;8.54;84.89;98263.13;4028796;87;21156;-89
2022/01/03 13:34:14;;;;;;;6.30;3.25;;;;;;;8.47;84.75;98262.50;4032767;87;21113;-89
2022/01/03 13:40:23;;;;;;;10.32;3.47;;;;;;;8.44;84.94;98264.62;4099491;85;21076;-90
2022/01/03 13:52:52;;;;;;;6.87;2.98;;;;;;;8.21;84.89;98259.92;4154384;84;21044;-93
2022/01/03 13:58:54;;;;;;;9.88;3.40;;;;;;;8.03;84.88;98258.40;4151739;84;21062;-91
2022/01/03 14:04:59;;;;;;;8.40;2.80;;;;;;;7.96;84.70;98263.00;4168512;84;21083;-90
2022/01/03 14:11:12;;;;;;;8.10;2.60;;;;;;;7.99;84.40;98270.42;4167779;84;21107;-92
2022/01/03 14:17:15;;;;;;;7.58;2.58;;;;;;;7.96;84.34;98284.23;4151632;84;21042;-92
2022/01/03 14:23:18;;;;;;;6.75;2.90;;;;;;;7.92;84.08;98283.41;4167187;84;21093;-95
2022/01/03 14:29:19;;;;;;;8.73;3.17;;;;;;;7.92;84.54;98281.28;4168466;84;21062;-90
2022/01/03 14:35:35;;;;;;;6.60;2.58;;;;;;;7.97;83.57;98290.48;4050981;83;9999602;-91
2022/01/03 14:41:39;;;;;;;8.20;3.17;;;;;;;7.96;83.61;98301.16;4165892;84;21087;-90
2022/01/03 14:47:42;;;;;;;8.60;3.17;;;;;;;7.88;83.62;98300.31;4174381;83;21036;-90
2022/01/03 14:53:44;;;;;;;12.55;4.08;;;;;;;7.93;83.56;98316.90;4210104;83;21083;-92
2022/01/03 14:59:45;;;;;;;8.63;4.20;;;;;;;7.98;83.60;98322.02;4206353;83;21042;-89
2022/01/03 15:05:47;;;;;;;13.18;4.70;;;;;;;8.06;83.33;98331.84;4206113;83;21533;-93
2022/01/03 15:11:48;;;;;;;13.35;4.33;;;;;;;8.06;83.39;98347.41;4206050;83;21451;-90
2022/01/03 15:17:50;;;;;;;15.43;4.97;;;;;;;8.05;83.53;98364.33;4205159;83;21551;-91
2022/01/03 15:23:54;;;;;;;14.33;5.25;;;;;;;7.99;83.76;98359.01;4204763;83;21059;-92
2022/01/03 15:29:56;;;;;;;13.28;5.75;;;;;;;7.89;83.86;98371.36;4204538;83;21129;-91
2022/01/03 15:35:58;;;;;;;17.02;6.17;;;;;;;7.79;83.84;98373.96;4090552;83;9999791;-90
2022/01/03 15:42:01;;;;;;;13.93;5.03;;;;;;;7.68;83.79;98373.05;4204322;83;21028;-89
2022/01/03 15:48:02;;;;;;;15.78;5.92;;;;;;;7.68;83.71;98386.09;4203173;83;21087;-89
2022/01/03 15:54:07;;;;;;;18.32;5.65;;;;;;;7.67;83.64;98394.64;4205611;83;21099;-89
2022/01/03 16:00:09;;;;;;;14.73;5.87;;;;;;;7.66;83.61;98398.50;4182435;83;21079;-89
2022/01/03 16:06:10;;;;;;;14.07;6.10;;;;;;;7.62;83.55;98391.67;4206714;83;21151;-92
2022/01/03 16:12:12;;;;;;;17.05;6.70;;;;;;;7.60;83.33;98395.33;4206536;83;21845;-91
2022/01/03 16:18:13;;;;;;;16.20;6.50;;;;;;;7.63;83.43;98400.61;4207190;83;21079;-91
2022/01/03 16:24:15;;;;;;;17.52;7.33;;;;;;;7.53;83.26;98400.67;4207138;83;21077;-91
2022/01/03 16:30:20;;;;;;;16.48;6.03;;;;;;;7.44;83.25;98402.09;4207201;83;21744;-91
2022/01/03 16:36:22;;;;;;;22.52;7.05;;;;;;;7.33;83.13;98399.83;4209852;83;21601;-92
2022/01/03 16:42:24;;;;;;;15.75;6.33;;;;;;;7.20;82.92;98407.98;4208950;83;21633;-91
2022/01/03 16:48:25;;;;;;;12.70;5.78;;;;;;;7.10;83.03;98415.41;4196918;83;21622;-89
2022/01/03 16:54:27;;;;;;;13.35;5.12;;;;;;;7.06;83.11;98413.22;4169222;84;21074;-91
2022/01/03 17:00:29;;;;;;;14.90;5.75;;;;;;;7.10;83.11;98424.93;4169009;84;21110;-91
2022/01/03 17:06:31;;;;;;;16.07;5.95;;;;;;;7.12;83.11;98421.27;4161344;84;21063;-90
2022/01/03 17:12:33;;;;;;;16.05;6.10;;;;;;;7.14;83.00;98432.59;4167248;84;21073;-91
2022/01/03 17:18:34;;;;;;;16.17;6.25;;;;;;;7.07;83.00;98438.70;4168266;84;21160;-90
2022/01/03 17:24:37;;;;;;;15.65;6.72;;;;;;;7.11;82.74;98428.64;4177575;83;21054;-90
2022/01/03 17:30:39;;;;;;;13.80;5.42;;;;;;;7.19;83.01;98437.70;4175417;84;21103;-90
2022/01/03 17:36:42;;;;;;;10.23;5.10;;;;;;;7.22;82.76;98443.80;4173795;84;22381;-90
2022/01/03 17:42:45;;;;;;;12.13;5.47;;;;;;;7.25;83.17;98447.92;4176866;84;21633;-94
2022/01/03 17:48:47;;;;;;;17.25;7.50;;;;;;;7.30;82.92;98438.08;4176418;83;21042;-91
2022/01/03 17:54:49;;;;;;;21.02;9.25;;;;;;;7.32;83.06;98429.55;4206243;83;22381;-92
2022/01/03 18:00:50;;;;;;;17.70;8.00;;;;;;;7.36;83.19;98426.31;4204458;83;22331;-92
2022/01/03 18:06:53;;;;;;;17.60;7.62;;;;;;;7.43;82.96;98414.95;4201815;83;21100;-91
2022/01/03 18:13:00;;;;;;;19.07;7.58;;;;;;;7.42;83.09;98418.03;4204234;83;21054;-91
2022/01/03 18:19:03;;;;;;;20.72;7.47;;;;;;;7.43;82.86;98414.15;4204252;83;21174;-91
2022/01/03 18:25:07;;;;;;;17.05;7.30;;;;;;;7.42;82.96;98413.36;4204567;83;21063;-91
2022/01/03 18:31:10;;;;;;;17.37;7.03;;;;;;;7.44;82.28;98403.45;4119540;85;21122;-91
2022/01/03 18:37:13;;;;;;;16.60;5.83;;;;;;;7.44;82.53;98401.53;3969702;85;9999713;-91
2022/01/03 18:43:14;;;;;;;12.88;5.20;;;;;;;7.37;82.38;98397.92;4125878;85;21074;-91
2022/01/03 18:49:16;;;;;;;20.48;5.28;;;;;;;7.32;81.35;98386.78;4118024;85;21044;-89
2022/01/03 18:55:18;;;;;;;9.55;4.50;;;;;;;7.48;80.12;98381.16;4095579;85;21543;-90
2022/01/03 19:01:21;;;;;;;11.63;4.12;;;;;;;7.40;80.83;98387.66;4067706;86;22016;-91
2022/01/03 19:07:22;;;;;;;9.90;3.98;;;;;;;7.21;80.35;98389.12;4097977;85;21041;-94
2022/01/03 19:13:24;;;;;;;11.53;3.92;;;;;;;7.14;79.91;98383.00;4095163;85;21057;-91
2022/01/03 19:19:27;;;;;;;12.23;4.30;;;;;;;7.18;78.32;98375.69;4096739;85;21112;-91
2022/01/03 19:25:30;;;;;;;12.58;4.22;;;;;;;7.11;80.06;98372.08;4061770;86;21588;-90
2022/01/03 19:31:32;;;;;;;12.60;4.62;;;;;;;7.00;80.46;98367.05;4097860;85;21100;-89
2022/01/03 19:43:53;;;;;;;14.93;5.20;;;;;;;6.94;80.19;98369.89;4098377;85;21097;-92
2022/01/03 19:49:55;;;;;;;14.73;5.00;;;;;;;7.00;79.98;98382.79;4054192;86;21610;-87
2022/01/03 19:55:57;;;;;;;12.70;4.65;;;;;;;7.04;79.81;98385.57;4164983;84;21153;-88
2022/01/03 20:01:58;;;;;;;14.93;5.12;;;;;;;7.03;79.87;98386.14;4164745;84;21733;-88
2022/01/03 20:08:02;;;;;;;17.92;6.97;;;;;;;7.02;79.88;98375.05;4050780;84;10000230;-88
2022/01/03 20:14:05;;;;;;;24.27;8.75;;;;;;;7.02;79.76;98382.42;4167727;84;21103;-87
2022/01/03 20:20:11;;;;;;;25.90;9.33;;;;;;;7.00;79.65;98380.66;4153862;84;21122;-88
2022/01/03 20:26:14;;;;;;;18.12;7.85;;;;;;;7.04;78.79;98371.97;4166302;84;21098;-87
2022/01/03 20:32:15;;;;;;;22.22;10.18;;;;;;;7.03;79.48;98367.69;4164733;84;21060;-87
2022/01/03 20:38:17;;;;;;;17.57;6.92;;;;;;;6.98;79.44;98361.98;4166178;84;21056;-88
2022/01/03 20:44:18;;;;;;;20.88;9.28;;;;;;;6.94;79.58;98362.48;4166587;84;21077;-87
2022/01/03 20:50:21;;;;;;;20.90;8.13;;;;;;;6.97;79.31;98348.15;4165340;84;21087;-87
2022/01/03 20:56:22;;;;;;;19.20;7.28;;;;;;;7.00;79.06;98336.53;4146018;84;21078;-86
2022/01/03 21:02:23;;;;;;;19.55;7.60;;;;;;;7.07;78.29;98332.56;4175830;84;21059;-89
2022/01/03 21:08:25;;;;;;;17.92;7.78;;;;;;;7.13;78.79;98323.48;4174418;84;21670;-88
2022/01/03 21:14:26;;;;;;;17.37;7.15;;;;;;;7.16;78.33;98318.67;4174830;84;21030;-90
2022/01/03 21:20:29;;;;;;;19.02;7.05;;;;;;;7.20;77.88;98323.60;4176181;84;21539;-90
2022/01/03 21:26:31;;;;;;;18.40;6.58;;;;;;;7.22;78.23;98314.50;4175081;84;21036;-89
2022/01/03 21:32:37;;;;;;;18.07;6.37;;;;;;;7.20;77.70;98307.27;4177773;84;21078;-89
2022/01/03 21:38:40;;;;;;;17.37;6.45;;;;;;;7.18;77.35;98309.00;4177143;83;21086;-90
2022/01/03 21:44:41;;;;;;;17.15;5.28;;;;;;;7.22;78.03;98296.80;4175928;84;21582;-90
2022/01/03 21:50:43;;;;;;;12.35;5.42;;;;;;;7.25;77.66;98298.19;4175725;84;21050;-90
2022/01/03 21:56:45;;;;;;;14.53;5.42;;;;;;;7.21;78.03;98297.94;4175224;84;21063;-90
2022/01/03 22:02:49;;;;;;;15.13;4.87;;;;;;;7.16;78.16;98279.99;4175634;84;21060;-91
2022/01/03 22:08:50;;;;;;;11.00;4.17;;;;;;;7.15;78.36;98279.00;4174841;84;21068;-90
2022/01/03 22:14:53;;;;;;;12.33;4.22;;;;;;;7.12;78.37;98275.09;4175988;84;21709;-89
2022/01/03 22:20:54;;;;;;;10.95;3.70;;;;;;;7.11;78.21;98273.51;4175684;84;21026;-90
2022/01/03 22:26:56;;;;;;;11.53;4.20;;;;;;;7.03;78.48;98275.16;4175714;84;21057;-90
2022/01/03 22:32:58;;;;;;;11.93;4.10;;;;;;;6.95;78.60;98277.57;4176280;84;21532;-90
2022/01/03 22:39:00;;;;;;;11.83;3.70;;;;;;;6.95;78.87;98278.36;4175907;84;21555;-89
2022/01/03 22:45:04;;;;;;;9.60;3.60;;;;;;;6.94;78.98;98273.30;4176524;84;21857;-90
2022/01/03 22:51:05;;;;;;;9.90;3.65;;;;;;;6.87;78.93;98267.73;4098647;85;21132;-90
2022/01/03 22:57:08;;;;;;;8.20;3.47;;;;;;;6.76;79.15;98259.44;4095782;87;21057;-89
2022/01/03 23:03:09;;;;;;;9.88;4.03;;;;;;;6.76;79.16;98240.96;4095129;86;21870;-89
2022/01/03 23:09:12;;;;;;;9.85;3.50;;;;;;;6.75;79.52;98242.13;4095746;85;21541;-90
2022/01/03 23:15:14;;;;;;;7.92;3.20;;;;;;;6.68;79.87;98233.84;4095050;85;22271;-89
2022/01/03 23:21:17;;;;;;;5.53;2.95;;;;;;;6.62;80.15;98242.13;4094991;86;22294;-89
2022/01/03 23:27:19;;;;;;;7.60;3.02;;;;;;;6.53;80.12;98239.65;4094579;85;21073;-90
2022/01/03 23:33:20;;;;;;;8.93;3.15;;;;;;;6.43;80.41;98240.86;4073706;86;21076;-89
2022/01/03 23:39:32;;;;;;;6.97;3.80;;;;;;;6.31;80.65;98240.50;4090251;86;21025;-89
2022/01/03 23:45:34;;;;;;;10.10;3.25;;;;;;;6.26;80.86;98232.66;4087926;86;21942;-89
2022/01/03 23:51:35;;;;;;;5.12;2.40;;;;;;;6.24;81.22;98228.94;4088888;86;21086;-89
2022/01/03 23:57:38;;;;;;;6.25;1.92;;;;;;;6.33;81.43;98219.16;4033957;87;21567;-90
